createdAt,value
2022-10-25T00:01:47.251Z,9.82
2022-10-25T00:04:16.611Z,6.57
2022-10-25T00:06:44.141Z,8.82
2022-10-25T00:09:11.721Z,8.52
2022-10-25T00:11:39.149Z,9.50
2022-10-25T00:14:07.494Z,8.18
2022-10-25T00:16:35.774Z,12.27
2022-10-25T00:19:03.187Z,8.77
2022-10-25T00:21:32.207Z,12.52
2022-10-25T00:23:59.582Z,9.70
2022-10-25T00:26:26.951Z,9.93
2022-10-25T00:28:54.702Z,8.55
2022-10-25T00:31:22.224Z,8.82
2022-10-25T00:33:49.677Z,9.27
2022-10-25T00:36:17.807Z,9.55
2022-10-25T00:38:47.004Z,9.43
2022-10-25T00:41:14.642Z,10.70
2022-10-25T00:43:42.854Z,10.30
2022-10-25T00:46:13.759Z,9.48
2022-10-25T00:51:09.167Z,9.50
2022-10-25T00:53:37.918Z,7.18
2022-10-25T00:56:12.691Z,8.60
2022-10-25T00:58:40.383Z,9.20
2022-10-25T01:01:08.641Z,8.00
2022-10-25T01:03:37.168Z,8.30
2022-10-25T01:06:06.275Z,7.55
2022-10-25T01:08:34.296Z,13.55
2022-10-25T01:11:01.626Z,10.27
2022-10-25T01:13:30.342Z,9.40
2022-10-25T01:16:01.923Z,10.07
2022-10-25T01:18:35.528Z,8.27
2022-10-25T01:21:20.455Z,10.98
2022-10-25T01:24:05.196Z,9.48
2022-10-25T01:26:39.834Z,9.73
2022-10-25T01:29:17.398Z,9.27
2022-10-25T01:31:49.592Z,6.43
2022-10-25T01:34:18.862Z,12.85
2022-10-25T01:36:51.002Z,8.88
2022-10-25T01:39:20.949Z,9.88
2022-10-25T01:41:52.886Z,9.10
2022-10-25T01:44:25.727Z,10.10
2022-10-25T01:46:56.755Z,8.60
2022-10-25T01:49:25.370Z,6.00
2022-10-25T01:51:52.704Z,11.73
2022-10-25T01:54:21.016Z,7.18
2022-10-25T01:56:55.135Z,10.98
2022-10-25T01:59:33.693Z,8.35
2022-10-25T02:02:05.381Z,5.93
2022-10-25T02:04:37.656Z,8.40
2022-10-25T02:07:07.636Z,7.47
2022-10-25T02:09:38.001Z,9.43
2022-10-25T02:12:08.209Z,10.30
2022-10-25T02:14:38.056Z,7.15
2022-10-25T02:17:08.645Z,9.35
2022-10-25T02:19:38.201Z,10.30
2022-10-25T02:22:08.426Z,6.35
2022-10-25T02:24:35.932Z,8.55
2022-10-25T02:27:03.736Z,6.10
2022-10-25T02:29:31.995Z,8.05
2022-10-25T02:31:59.535Z,7.43
2022-10-25T02:34:28.235Z,10.20
2022-10-25T02:36:55.889Z,6.68
2022-10-25T02:39:27.673Z,5.20
2022-10-25T02:41:57.875Z,7.13
2022-10-25T02:44:25.218Z,10.18
2022-10-25T02:46:52.574Z,6.65
2022-10-25T02:49:20.283Z,6.43
2022-10-25T02:51:49.066Z,9.70
2022-10-25T02:54:16.450Z,5.57
2022-10-25T02:56:43.827Z,5.43
2022-10-25T02:59:12.049Z,7.15
2022-10-25T03:01:39.761Z,11.55
2022-10-25T03:04:07.103Z,11.25
2022-10-25T03:06:34.437Z,4.35
2022-10-25T03:09:03.164Z,8.65
2022-10-25T03:11:30.492Z,19.13
2022-10-25T03:13:57.832Z,9.02
2022-10-25T03:16:25.241Z,10.13
2022-10-25T03:18:52.627Z,6.00
2022-10-25T03:21:19.949Z,9.07
2022-10-25T03:23:47.275Z,6.68
2022-10-25T03:26:16.009Z,8.07
2022-10-25T03:28:43.408Z,6.90
2022-10-25T03:31:12.495Z,9.43
2022-10-25T03:33:39.864Z,7.47
2022-10-25T03:36:07.433Z,10.23
2022-10-25T03:38:34.814Z,7.90
2022-10-25T03:41:02.275Z,5.30
2022-10-25T03:43:30.993Z,5.40
2022-10-25T03:45:58.494Z,7.72
2022-10-25T03:48:25.907Z,7.35
2022-10-25T03:50:53.875Z,5.95
2022-10-25T03:53:21.343Z,10.80
2022-10-25T03:55:49.818Z,10.45
2022-10-25T03:58:17.305Z,7.05
2022-10-25T04:00:46.111Z,7.43
2022-10-25T04:03:13.488Z,12.20
2022-10-25T04:05:40.907Z,7.95
2022-10-25T04:08:08.345Z,6.10
2022-10-25T04:10:35.700Z,6.70
2022-10-25T04:13:03.070Z,6.68
2022-10-25T04:15:30.487Z,9.02
2022-10-25T04:17:59.193Z,9.13
2022-10-25T04:20:26.589Z,6.50
2022-10-25T04:22:54.955Z,8.93
2022-10-25T04:25:22.377Z,9.50
2022-10-25T04:27:49.861Z,6.25
2022-10-25T04:30:17.450Z,8.35
2022-10-25T04:32:45.139Z,7.70
2022-10-25T04:35:14.086Z,5.97
2022-10-25T04:37:41.427Z,6.25
2022-10-25T04:40:09.531Z,6.97
2022-10-25T04:42:36.925Z,4.82
2022-10-25T04:45:04.469Z,7.03
2022-10-25T04:47:31.994Z,5.88
2022-10-25T04:49:59.493Z,9.75
2022-10-25T04:52:29.271Z,7.10
2022-10-25T04:54:56.630Z,7.65
2022-10-25T04:57:24.061Z,4.63
2022-10-25T04:59:52.533Z,4.97
2022-10-25T05:02:19.929Z,10.23
2022-10-25T05:04:47.323Z,5.15
2022-10-25T05:07:14.691Z,9.25
2022-10-25T05:09:46.533Z,7.00
2022-10-25T05:12:14.880Z,7.97
2022-10-25T05:14:42.242Z,4.70
2022-10-25T05:17:09.581Z,4.40
2022-10-25T05:19:36.969Z,8.27
2022-10-25T05:22:04.460Z,9.07
2022-10-25T05:24:31.796Z,7.47
2022-10-25T05:27:00.506Z,7.05
2022-10-25T05:29:27.881Z,6.35
2022-10-25T05:31:55.407Z,7.70
2022-10-25T05:34:22.854Z,6.10
2022-10-25T05:36:50.198Z,9.60
2022-10-25T05:39:17.571Z,9.48
2022-10-25T05:41:44.906Z,7.68
2022-10-25T05:44:14.885Z,6.68
2022-10-25T05:46:42.276Z,7.30
2022-10-25T05:49:10.127Z,6.45
2022-10-25T05:51:37.821Z,5.60
2022-10-25T05:54:05.926Z,5.00
2022-10-25T05:56:35.365Z,6.57
2022-10-25T05:59:03.279Z,6.45
2022-10-25T06:01:32.054Z,4.55
2022-10-25T06:03:59.463Z,5.10
2022-10-25T06:06:26.871Z,7.60
2022-10-25T06:08:56.293Z,7.57
2022-10-25T06:11:23.902Z,7.05
2022-10-25T06:13:51.281Z,10.32
2022-10-25T06:16:19.694Z,6.78
2022-10-25T06:18:48.507Z,13.85
2022-10-25T06:21:17.578Z,9.00
2022-10-25T06:23:45.465Z,8.35
2022-10-25T06:26:13.768Z,7.13
2022-10-25T06:28:41.336Z,7.55
2022-10-25T06:31:10.291Z,7.10
2022-10-25T06:33:37.979Z,4.32
2022-10-25T06:36:08.165Z,6.78
2022-10-25T06:38:35.503Z,5.10
2022-10-25T06:41:03.854Z,6.22
2022-10-25T06:43:31.337Z,8.73
2022-10-25T06:45:58.667Z,4.72
2022-10-25T06:48:26.044Z,7.20
2022-10-25T06:51:01.771Z,11.63
2022-10-25T06:53:30.527Z,5.20
2022-10-25T06:56:04.453Z,6.80
2022-10-25T06:58:32.988Z,6.07
2022-10-25T07:01:03.588Z,13.07
2022-10-25T07:03:35.002Z,8.23
2022-10-25T07:06:03.314Z,6.53
2022-10-25T07:08:32.077Z,6.72
2022-10-25T07:10:59.412Z,8.10
2022-10-25T07:13:26.762Z,6.40
2022-10-25T07:15:54.207Z,5.95
2022-10-25T07:18:21.594Z,8.25
2022-10-25T07:20:50.486Z,6.55
2022-10-25T07:23:18.033Z,10.57
2022-10-25T07:25:46.709Z,10.68
2022-10-25T07:28:14.086Z,9.80
2022-10-25T07:30:45.084Z,9.23
2022-10-25T07:33:12.535Z,7.85
2022-10-25T07:35:52.205Z,8.00
2022-10-25T07:38:28.025Z,5.70
2022-10-25T07:41:00.033Z,8.82
2022-10-25T07:43:27.406Z,13.05
2022-10-25T07:45:54.962Z,5.05
2022-10-25T07:48:22.444Z,7.30
2022-10-25T07:50:50.117Z,6.60
2022-10-25T07:53:17.481Z,4.13
2022-10-25T07:55:44.823Z,9.48
2022-10-25T07:58:13.556Z,7.85
2022-10-25T08:00:40.941Z,5.80
2022-10-25T08:03:08.337Z,8.70
2022-10-25T08:05:35.704Z,5.00
2022-10-25T08:08:04.839Z,5.25
2022-10-25T08:10:32.258Z,4.45
2022-10-25T08:12:59.595Z,5.78
2022-10-25T08:15:28.376Z,5.38
2022-10-25T08:17:59.554Z,7.50
2022-10-25T08:20:49.143Z,6.82
2022-10-25T08:23:14.770Z,7.50
2022-10-25T08:25:42.472Z,9.43
2022-10-25T08:28:09.791Z,7.60
2022-10-25T08:30:38.552Z,6.38
2022-10-25T08:33:11.190Z,6.57
2022-10-25T08:35:39.067Z,5.85
2022-10-25T08:38:06.547Z,7.07
2022-10-25T08:40:40.934Z,4.32
2022-10-25T08:43:14.787Z,6.80
2022-10-25T08:45:50.185Z,6.10
2022-10-25T08:48:18.959Z,7.70
2022-10-25T08:50:47.788Z,5.78
2022-10-25T08:53:17.382Z,11.63
2022-10-25T08:56:15.714Z,7.18
2022-10-25T08:58:33.731Z,7.95
2022-10-25T09:01:04.772Z,8.05
2022-10-25T09:03:32.379Z,7.25
2022-10-25T09:06:05.223Z,11.02
2022-10-25T09:08:47.392Z,12.82
2022-10-25T09:11:20.681Z,13.38
2022-10-25T09:13:51.790Z,7.20
2022-10-25T09:16:22.542Z,6.25
2022-10-25T09:21:22.584Z,7.63
2022-10-25T09:23:57.826Z,8.05
2022-10-25T09:26:29.678Z,8.68
2022-10-25T09:29:02.384Z,7.25
2022-10-25T09:31:32.250Z,6.00
2022-10-25T09:34:04.049Z,8.45
2022-10-25T09:36:34.375Z,7.40
2022-10-25T09:39:03.934Z,9.45
2022-10-25T09:41:33.385Z,4.22
2022-10-25T09:44:02.880Z,5.20
2022-10-25T09:46:35.352Z,4.15
2022-10-25T09:49:04.938Z,4.40
2022-10-25T09:51:36.885Z,6.05
2022-10-25T09:54:10.863Z,7.95
2022-10-25T09:56:38.228Z,8.52
2022-10-25T09:59:05.579Z,6.57
2022-10-25T10:01:34.838Z,8.15
2022-10-25T10:04:05.470Z,7.65
2022-10-25T10:06:34.968Z,5.43
2022-10-25T10:09:03.588Z,4.72
2022-10-25T10:11:31.526Z,5.57
2022-10-25T10:14:04.984Z,6.18
2022-10-25T10:16:41.674Z,6.65
2022-10-25T10:19:18.159Z,5.13
2022-10-25T10:21:46.348Z,7.30
2022-10-25T10:24:17.849Z,4.93
2022-10-25T10:26:47.015Z,8.48
2022-10-25T10:29:16.697Z,5.88
2022-10-25T10:34:23.662Z,4.32
2022-10-25T10:37:01.932Z,7.28
2022-10-25T10:39:29.332Z,6.40
2022-10-25T10:42:02.984Z,7.22
2022-10-25T10:44:34.191Z,8.88
2022-10-25T10:47:02.375Z,8.50
2022-10-25T10:49:37.666Z,8.20
2022-10-25T10:52:05.187Z,7.80
2022-10-25T10:54:35.248Z,8.90
2022-10-25T10:57:03.508Z,6.18
2022-10-25T10:59:34.193Z,5.30
2022-10-25T11:04:28.916Z,6.88
2022-10-25T11:07:13.316Z,6.32
2022-10-25T11:09:40.720Z,4.80
2022-10-25T11:12:08.786Z,5.13
2022-10-25T11:14:36.199Z,7.38
2022-10-25T11:17:07.683Z,5.45
2022-10-25T11:19:44.082Z,7.47
2022-10-25T11:22:21.247Z,3.92
2022-10-25T11:27:20.129Z,3.35
2022-10-25T11:29:55.098Z,4.70
2022-10-25T11:32:41.420Z,6.30
2022-10-25T11:35:16.511Z,4.60
2022-10-25T11:37:49.807Z,5.68
2022-10-25T11:40:18.444Z,4.22
2022-10-25T11:43:04.035Z,6.78
2022-10-25T11:45:42.274Z,5.70
2022-10-25T11:48:24.503Z,4.82
2022-10-25T11:50:55.751Z,6.13
2022-10-25T11:53:33.330Z,7.97
2022-10-25T11:56:04.861Z,6.15
2022-10-25T11:58:36.954Z,6.07
2022-10-25T12:01:07.518Z,7.00
2022-10-25T12:03:48.302Z,6.72
2022-10-25T12:06:19.317Z,5.25
2022-10-25T12:08:54.951Z,7.13
2022-10-25T12:11:25.345Z,6.45
2022-10-25T12:13:53.890Z,7.15
2022-10-25T12:16:22.629Z,11.48
2022-10-25T12:18:51.449Z,6.85
2022-10-25T12:21:21.833Z,7.68
2022-10-25T12:23:51.816Z,6.72
2022-10-25T12:26:23.575Z,3.83
2022-10-25T12:28:51.268Z,6.55
2022-10-25T12:31:19.968Z,9.60
2022-10-25T12:33:49.865Z,4.95
2022-10-25T12:36:21.534Z,4.05
2022-10-25T12:38:48.887Z,5.18
2022-10-25T12:41:20.165Z,7.10
2022-10-25T12:43:55.234Z,3.67
2022-10-25T12:46:40.203Z,4.68
2022-10-25T12:49:12.278Z,12.68
2022-10-25T12:51:45.102Z,6.03
2022-10-25T12:54:30.147Z,4.25
2022-10-25T12:57:02.807Z,6.50
2022-10-25T12:59:45.072Z,7.30
2022-10-25T13:02:20.243Z,4.63
2022-10-25T13:04:55.001Z,3.83
2022-10-25T13:07:23.427Z,4.90
2022-10-25T13:09:50.995Z,7.88
2022-10-25T13:12:26.240Z,8.43
2022-10-25T13:14:54.535Z,6.25
2022-10-25T13:17:40.349Z,5.03
2022-10-25T13:20:26.251Z,10.25
2022-10-25T13:22:53.875Z,9.75
2022-10-25T13:25:41.490Z,8.40
2022-10-25T13:28:32.754Z,6.53
2022-10-25T13:31:16.361Z,9.25
2022-10-25T13:33:43.755Z,8.32
2022-10-25T13:36:12.027Z,7.15
2022-10-25T13:38:40.152Z,6.18
2022-10-25T13:41:18.151Z,7.93
2022-10-25T13:44:06.338Z,7.03
2022-10-25T13:46:37.205Z,5.63
2022-10-25T13:49:06.415Z,7.10
2022-10-25T13:51:33.840Z,6.10
2022-10-25T13:54:05.961Z,7.28
2022-10-25T13:56:35.854Z,9.43
2022-10-25T13:59:03.830Z,10.00
2022-10-25T14:01:58.160Z,7.80
2022-10-25T14:04:37.657Z,7.70
2022-10-25T14:07:23.606Z,8.93
2022-10-25T14:09:51.677Z,6.15
2022-10-25T14:12:20.458Z,6.80
2022-10-25T14:14:54.157Z,5.45
2022-10-25T14:17:35.847Z,7.10
2022-10-25T14:20:08.693Z,9.00
2022-10-25T14:22:37.135Z,9.13
2022-10-25T14:25:06.611Z,7.75
2022-10-25T14:27:34.827Z,7.97
2022-10-25T14:30:21.517Z,8.65
2022-10-25T14:32:50.507Z,5.65
2022-10-25T14:35:19.657Z,6.32
2022-10-25T14:37:47.064Z,5.35
2022-10-25T14:40:19.234Z,6.70
2022-10-25T14:42:46.883Z,5.75
2022-10-25T14:45:19.303Z,9.20
2022-10-25T14:47:46.771Z,8.50
2022-10-25T14:50:15.136Z,7.10
2022-10-25T14:52:45.661Z,8.57
2022-10-25T14:57:40.581Z,5.82
2022-10-25T15:00:10.420Z,9.65
2022-10-25T15:02:39.757Z,11.10
2022-10-25T15:05:07.783Z,8.50
2022-10-25T15:07:37.006Z,7.53
2022-10-25T15:12:38.739Z,5.00
2022-10-25T15:15:25.877Z,5.95
2022-10-25T15:17:53.520Z,8.00
2022-10-25T15:20:31.213Z,4.43
2022-10-25T15:23:02.571Z,6.47
2022-10-25T15:25:32.288Z,7.25
2022-10-25T15:28:09.719Z,8.25
2022-10-25T15:30:38.214Z,5.63
2022-10-25T15:33:06.927Z,5.00
2022-10-25T15:35:39.732Z,8.27
2022-10-25T15:38:09.495Z,10.63
2022-10-25T15:40:38.766Z,7.93
2022-10-25T15:43:06.154Z,6.15
2022-10-25T15:45:33.820Z,5.60
2022-10-25T15:48:01.242Z,6.85
2022-10-25T15:50:28.708Z,9.15
2022-10-25T15:52:56.060Z,7.60
2022-10-25T15:55:24.244Z,10.93
2022-10-25T15:57:53.035Z,11.18
2022-10-25T16:00:24.170Z,7.55
2022-10-25T16:02:54.775Z,7.85
2022-10-25T16:05:23.763Z,7.70
2022-10-25T16:07:51.184Z,8.88
2022-10-25T16:10:18.658Z,12.35
2022-10-25T16:12:47.952Z,6.60
2022-10-25T16:15:18.159Z,10.20
2022-10-25T16:17:48.007Z,9.32
2022-10-25T16:20:17.106Z,12.75
2022-10-25T16:22:44.728Z,11.40
2022-10-25T16:25:12.750Z,10.98
2022-10-25T16:27:40.652Z,9.27
2022-10-25T16:30:13.135Z,10.00
2022-10-25T16:32:41.880Z,17.73
2022-10-25T16:35:09.956Z,17.48
2022-10-25T16:37:37.434Z,8.48
2022-10-25T16:40:06.591Z,11.57
2022-10-25T16:42:34.711Z,14.10
2022-10-25T16:45:02.550Z,13.15
2022-10-25T16:47:29.913Z,10.18
2022-10-25T16:49:58.644Z,14.77
2022-10-25T16:52:26.030Z,11.38
2022-10-25T16:54:53.414Z,9.18
2022-10-25T16:57:20.739Z,13.75
2022-10-25T16:59:48.114Z,12.77
2022-10-25T17:02:17.087Z,15.50
2022-10-25T17:04:44.554Z,12.75
2022-10-25T17:07:13.252Z,11.23
2022-10-25T17:09:41.746Z,13.70
2022-10-25T17:12:09.312Z,13.00
2022-10-25T17:14:36.802Z,20.27
2022-10-25T17:17:04.250Z,13.82
2022-10-25T17:19:31.629Z,12.07
2022-10-25T17:21:59.052Z,11.15
2022-10-25T17:24:27.759Z,11.75
2022-10-25T17:26:55.157Z,14.25
2022-10-25T17:29:22.600Z,13.85
2022-10-25T17:31:49.932Z,12.02
2022-10-25T17:34:17.574Z,15.35
2022-10-25T17:36:44.884Z,21.13
2022-10-25T17:39:12.599Z,15.88
2022-10-25T17:41:41.310Z,14.57
2022-10-25T17:44:10.193Z,11.52
2022-10-25T17:46:37.577Z,11.98
2022-10-25T17:49:05.796Z,11.32
2022-10-25T17:51:33.883Z,12.85
2022-10-25T17:54:01.243Z,13.02
2022-10-25T17:56:28.737Z,12.02
2022-10-25T17:58:58.482Z,12.88
2022-10-25T18:01:26.894Z,11.10
2022-10-25T18:03:54.968Z,9.95
2022-10-25T18:08:56.275Z,13.13
2022-10-25T18:11:24.127Z,9.48
2022-10-25T18:13:54.248Z,13.27
2022-10-25T18:16:26.097Z,9.68
2022-10-25T18:18:53.529Z,12.15
2022-10-25T18:21:20.900Z,12.50
2022-10-25T18:23:48.347Z,8.60
2022-10-25T18:26:17.535Z,9.32
2022-10-25T18:28:44.963Z,10.10
2022-10-25T18:31:13.475Z,12.73
2022-10-25T18:33:43.119Z,12.95
2022-10-25T18:36:11.577Z,6.70
2022-10-25T18:38:38.921Z,10.60
2022-10-25T18:41:07.252Z,9.10
2022-10-25T18:43:34.624Z,10.10
2022-10-25T18:46:02.389Z,10.63
2022-10-25T18:48:29.731Z,9.82
2022-10-25T18:51:02.961Z,13.02
2022-10-25T18:53:30.740Z,9.57
2022-10-25T18:55:58.321Z,10.65
2022-10-25T18:58:25.710Z,11.15
2022-10-25T19:00:53.199Z,10.80
2022-10-25T19:03:20.675Z,11.32
2022-10-25T19:05:52.349Z,10.35
2022-10-25T19:08:21.054Z,9.90
2022-10-25T19:10:50.021Z,12.07
2022-10-25T19:13:19.364Z,10.32
2022-10-25T19:15:46.797Z,8.57
2022-10-25T19:18:14.841Z,9.23
2022-10-25T19:20:45.490Z,13.55
2022-10-25T19:23:13.832Z,9.27
2022-10-25T19:25:42.551Z,9.50
2022-10-25T19:28:09.942Z,8.65
2022-10-25T19:30:37.883Z,10.07
2022-10-25T19:33:05.675Z,13.60
2022-10-25T19:35:33.320Z,12.30
2022-10-25T19:38:00.705Z,12.00
2022-10-25T19:40:28.108Z,13.43
2022-10-25T19:42:56.775Z,10.70
2022-10-25T19:45:24.491Z,15.63
2022-10-25T19:47:55.933Z,13.10
2022-10-25T19:50:23.923Z,13.70
2022-10-25T19:52:51.498Z,17.73
2022-10-25T19:55:18.841Z,16.27
2022-10-25T19:57:46.550Z,12.98
2022-10-25T20:00:16.109Z,13.85
2022-10-25T20:02:43.455Z,14.85
2022-10-25T20:07:39.729Z,11.80
2022-10-25T20:10:07.477Z,13.10
2022-10-25T20:12:34.884Z,13.38
2022-10-25T20:15:02.312Z,14.23
2022-10-25T20:17:31.053Z,13.60
2022-10-25T20:19:58.456Z,15.68
2022-10-25T20:22:25.858Z,13.75
2022-10-25T20:24:53.202Z,16.23
2022-10-25T20:27:20.603Z,13.57
2022-10-25T20:29:47.926Z,13.95
2022-10-25T20:32:15.452Z,17.27
2022-10-25T20:34:44.126Z,12.77
2022-10-25T20:37:11.569Z,14.00
2022-10-25T20:39:38.918Z,12.50
2022-10-25T20:42:06.306Z,15.43
2022-10-25T20:44:33.674Z,14.68
2022-10-25T20:47:01.067Z,14.00
2022-10-25T20:49:28.466Z,17.40
2022-10-25T20:51:57.149Z,16.25
2022-10-25T20:54:24.526Z,13.55
2022-10-25T20:56:51.936Z,15.23
2022-10-25T20:59:19.741Z,12.63
2022-10-25T21:01:47.215Z,14.95
2022-10-25T21:04:21.884Z,17.45
2022-10-25T21:07:03.687Z,15.07
2022-10-25T21:09:31.051Z,14.32
2022-10-25T21:11:58.412Z,12.70
2022-10-25T21:14:25.829Z,11.07
2022-10-25T21:16:53.246Z,16.05
2022-10-25T21:19:20.610Z,14.75
2022-10-25T21:21:47.954Z,18.30
2022-10-25T21:24:16.827Z,13.45
2022-10-25T21:26:44.168Z,15.20
2022-10-25T21:29:11.513Z,15.20
2022-10-25T21:31:39.181Z,14.23
2022-10-25T21:34:06.614Z,13.02
2022-10-25T21:36:34.013Z,11.10
2022-10-25T21:39:01.456Z,18.73
2022-10-25T21:41:30.201Z,14.18
2022-10-25T21:43:58.163Z,14.13
2022-10-25T21:46:26.288Z,19.02
2022-10-25T21:48:53.867Z,15.55
2022-10-25T21:51:21.787Z,15.70
2022-10-25T21:53:49.189Z,16.33
2022-10-25T21:56:17.344Z,13.75
2022-10-25T21:58:47.151Z,13.57
2022-10-25T22:01:15.498Z,15.45
2022-10-25T22:03:42.961Z,15.52
2022-10-25T22:06:11.060Z,15.63
2022-10-25T22:08:38.407Z,13.90
2022-10-25T22:11:07.022Z,14.35
2022-10-25T22:13:34.774Z,11.35
2022-10-25T22:16:04.657Z,14.68
2022-10-25T22:18:32.054Z,14.63
2022-10-25T22:21:00.319Z,16.58
2022-10-25T22:23:28.764Z,15.45
2022-10-25T22:25:59.619Z,15.80
2022-10-25T22:28:26.991Z,16.50
2022-10-25T22:30:57.847Z,12.75
2022-10-25T22:33:26.735Z,12.80
2022-10-25T22:35:54.135Z,12.18
2022-10-25T22:38:21.865Z,11.48
2022-10-25T22:40:58.931Z,11.43
2022-10-25T22:43:26.560Z,11.85
2022-10-25T22:45:54.287Z,15.73
2022-10-25T22:48:21.878Z,15.55
2022-10-25T22:50:51.585Z,11.57
2022-10-25T22:53:19.429Z,10.60
2022-10-25T22:55:53.887Z,12.07
2022-10-25T22:58:21.279Z,13.45
2022-10-25T23:00:48.659Z,12.38
2022-10-25T23:03:16.210Z,12.93
2022-10-25T23:05:43.560Z,14.82
2022-10-25T23:08:12.267Z,12.75
2022-10-25T23:10:39.637Z,12.35
2022-10-25T23:13:06.959Z,12.55
2022-10-25T23:15:34.290Z,12.27
2022-10-25T23:18:02.239Z,11.38
2022-10-25T23:20:29.613Z,14.18
2022-10-25T23:22:56.926Z,11.60
2022-10-25T23:25:25.660Z,11.15
2022-10-25T23:27:53.006Z,11.50
2022-10-25T23:30:21.580Z,12.85
2022-10-25T23:32:48.922Z,10.77
2022-10-25T23:35:16.293Z,13.02
2022-10-25T23:37:43.633Z,12.63
2022-10-25T23:40:11.614Z,13.50
2022-10-25T23:42:40.329Z,15.43
2022-10-25T23:45:08.362Z,14.20
2022-10-25T23:47:35.746Z,16.50
2022-10-25T23:50:03.102Z,11.00
2022-10-25T23:52:30.474Z,16.55
2022-10-25T23:54:57.888Z,13.52
2022-10-25T23:57:25.270Z,14.50
2022-10-25T23:59:54.067Z,13.23
